sensor_id;sensor_type;location;lat;lon;timestamp;pressure;altitude;pressure_sealevel;temperature;humidity
39681;BME280;26327;42.550;23.120;2024-03-02T00:02:18;92213.66;;;9.98;100.00
39681;BME280;26327;42.550;23.120;2024-03-02T00:04:47;92216.69;;;10.01;100.00
39681;BME280;26327;42.550;23.120;2024-03-02T00:07:14;92215.84;;;9.94;100.00
39681;BME280;26327;42.550;23.120;2024-03-02T00:09:39;92204.75;;;9.79;100.00
39681;BME280;26327;42.550;23.120;2024-03-02T00:12:05;92209.19;;;9.85;100.00
39681;BME280;26327;42.550;23.120;2024-03-02T00:14:31;92208.41;;;9.91;100.00
39681;BME280;26327;42.550;23.120;2024-03-02T00:16:56;92206.19;;;9.88;100.00
39681;BME280;26327;42.550;23.120;2024-03-02T00:19:22;92224.25;;;9.96;100.00
39681;BME280;26327;42.550;23.120;2024-03-02T00:21:48;92191.69;;;9.94;100.00
39681;BME280;26327;42.550;23.120;2024-03-02T00:24:34;92211.13;;;10.11;100.00
39681;BME280;26327;42.550;23.120;2024-03-02T00:27:01;92134.19;;;9.49;100.00
39681;BME280;26327;42.550;23.120;2024-03-02T00:29:29;92204.91;;;10.05;100.00
39681;BME280;26327;42.550;23.120;2024-03-02T00:31:55;92200.22;;;9.88;100.00
39681;BME280;26327;42.550;23.120;2024-03-02T00:34:21;92140.00;;;8.74;100.00
39681;BME280;26327;42.550;23.120;2024-03-02T00:36:47;92211.03;;;9.07;100.00
39681;BME280;26327;42.550;23.120;2024-03-02T00:39:15;92193.81;;;9.21;100.00
39681;BME280;26327;42.550;23.120;2024-03-02T00:41:41;92150.50;;;8.94;100.00
39681;BME280;26327;42.550;23.120;2024-03-02T00:44:12;92197.22;;;9.50;100.00
39681;BME280;26327;42.550;23.120;2024-03-02T00:46:42;92122.84;;;9.22;100.00
39681;BME280;26327;42.550;23.120;2024-03-02T00:49:18;92129.03;;;9.28;100.00
39681;BME280;26327;42.550;23.120;2024-03-02T00:51:46;92129.81;;;9.22;100.00
39681;BME280;26327;42.550;23.120;2024-03-02T00:54:14;92198.50;;;9.67;100.00
39681;BME280;26327;42.550;23.120;2024-03-02T00:56:41;92210.69;;;9.66;100.00
39681;BME280;26327;42.550;23.120;2024-03-02T00:59:06;92202.31;;;9.43;100.00
39681;BME280;26327;42.550;23.120;2024-03-02T01:01:33;92137.59;;;9.22;100.00
39681;BME280;26327;42.550;23.120;2024-03-02T01:03:59;92188.88;;;9.54;100.00
39681;BME280;26327;42.550;23.120;2024-03-02T01:06:24;92119.38;;;8.87;100.00
39681;BME280;26327;42.550;23.120;2024-03-02T01:08:50;92193.19;;;9.19;100.00
39681;BME280;26327;42.550;23.120;2024-03-02T01:11:16;92132.38;;;8.94;100.00
39681;BME280;26327;42.550;23.120;2024-03-02T01:13:43;92125.00;;;9.19;100.00
39681;BME280;26327;42.550;23.120;2024-03-02T01:16:08;92196.56;;;9.75;100.00
39681;BME280;26327;42.550;23.120;2024-03-02T01:18:34;92197.03;;;9.92;100.00
39681;BME280;26327;42.550;23.120;2024-03-02T01:20:59;92190.16;;;10.06;100.00
39681;BME280;26327;42.550;23.120;2024-03-02T01:23:25;92107.00;;;9.45;100.00
39681;BME280;26327;42.550;23.120;2024-03-02T01:25:51;92171.44;;;9.83;100.00
39681;BME280;26327;42.550;23.120;2024-03-02T01:28:17;92190.03;;;9.86;100.00
39681;BME280;26327;42.550;23.120;2024-03-02T01:30:44;92176.75;;;9.68;100.00
39681;BME280;26327;42.550;23.120;2024-03-02T01:33:09;92166.72;;;9.52;100.00
39681;BME280;26327;42.550;23.120;2024-03-02T01:35:35;92149.53;;;9.51;100.00
39681;BME280;26327;42.550;23.120;2024-03-02T01:38:01;92128.22;;;9.55;100.00
39681;BME280;26327;42.550;23.120;2024-03-02T01:40:27;92131.41;;;9.23;100.00
39681;BME280;26327;42.550;23.120;2024-03-02T01:42:53;92134.50;;;8.83;100.00
39681;BME280;26327;42.550;23.120;2024-03-02T01:45:24;92178.47;;;8.77;100.00
39681;BME280;26327;42.550;23.120;2024-03-02T01:47:50;92123.75;;;8.59;100.00
39681;BME280;26327;42.550;23.120;2024-03-02T01:50:16;92166.31;;;8.99;100.00
39681;BME280;26327;42.550;23.120;2024-03-02T01:52:41;92173.16;;;9.34;100.00
39681;BME280;26327;42.550;23.120;2024-03-02T01:55:07;92168.31;;;9.25;100.00
39681;BME280;26327;42.550;23.120;2024-03-02T01:57:36;92151.72;;;9.19;100.00
39681;BME280;26327;42.550;23.120;2024-03-02T02:00:01;92163.94;;;9.25;100.00
39681;BME280;26327;42.550;23.120;2024-03-02T02:02:28;92106.25;;;8.89;100.00
39681;BME280;26327;42.550;23.120;2024-03-02T02:04:53;92165.19;;;9.08;100.00
39681;BME280;26327;42.550;23.120;2024-03-02T02:07:19;92103.59;;;8.54;100.00
39681;BME280;26327;42.550;23.120;2024-03-02T02:09:45;92164.78;;;9.04;100.00
39681;BME280;26327;42.550;23.120;2024-03-02T02:12:10;92172.25;;;9.21;100.00
39681;BME280;26327;42.550;23.120;2024-03-02T02:14:36;92167.16;;;9.62;100.00
39681;BME280;26327;42.550;23.120;2024-03-02T02:17:02;92110.53;;;9.31;100.00
39681;BME280;26327;42.550;23.120;2024-03-02T02:19:28;92122.34;;;9.40;100.00
39681;BME280;26327;42.550;23.120;2024-03-02T02:21:54;92151.66;;;9.75;100.00
39681;BME280;26327;42.550;23.120;2024-03-02T02:24:19;92149.91;;;9.89;100.00
39681;BME280;26327;42.550;23.120;2024-03-02T02:26:44;92090.69;;;9.51;100.00
39681;BME280;26327;42.550;23.120;2024-03-02T02:29:10;92164.88;;;9.87;100.00
39681;BME280;26327;42.550;23.120;2024-03-02T02:31:42;92173.34;;;9.95;100.00
39681;BME280;26327;42.550;23.120;2024-03-02T02:34:07;92167.78;;;10.05;100.00
39681;BME280;26327;42.550;23.120;2024-03-02T02:36:34;92156.22;;;10.14;100.00
39681;BME280;26327;42.550;23.120;2024-03-02T02:39:03;92157.25;;;10.20;100.00
39681;BME280;26327;42.550;23.120;2024-03-02T02:41:30;92167.53;;;9.93;100.00
39681;BME280;26327;42.550;23.120;2024-03-02T02:43:55;92161.88;;;9.83;100.00
39681;BME280;26327;42.550;23.120;2024-03-02T02:46:21;92152.66;;;9.74;100.00
39681;BME280;26327;42.550;23.120;2024-03-02T02:48:46;92063.03;;;9.24;100.00
39681;BME280;26327;42.550;23.120;2024-03-02T02:51:12;92171.16;;;9.99;100.00
39681;BME280;26327;42.550;23.120;2024-03-02T02:53:37;92105.66;;;9.49;100.00
39681;BME280;26327;42.550;23.120;2024-03-02T02:56:08;92092.38;;;9.31;100.00
39681;BME280;26327;42.550;23.120;2024-03-02T02:58:34;92113.50;;;9.28;100.00
39681;BME280;26327;42.550;23.120;2024-03-02T03:00:59;92164.97;;;9.65;100.00
39681;BME280;26327;42.550;23.120;2024-03-02T03:03:25;92156.19;;;9.60;100.00
39681;BME280;26327;42.550;23.120;2024-03-02T03:05:50;92147.06;;;9.70;100.00
39681;BME280;26327;42.550;23.120;2024-03-02T03:08:16;92145.72;;;9.88;100.00
39681;BME280;26327;42.550;23.120;2024-03-02T03:10:41;92155.19;;;10.02;100.00
39681;BME280;26327;42.550;23.120;2024-03-02T03:13:07;92160.06;;;9.84;100.00
39681;BME280;26327;42.550;23.120;2024-03-02T03:15:34;92117.59;;;9.15;100.00
39681;BME280;26327;42.550;23.120;2024-03-02T03:18:02;92172.81;;;9.44;100.00
39681;BME280;26327;42.550;23.120;2024-03-02T03:20:29;92163.50;;;9.22;100.00
39681;BME280;26327;42.550;23.120;2024-03-02T03:22:54;92160.72;;;9.51;100.00
39681;BME280;26327;42.550;23.120;2024-03-02T03:25:19;92111.25;;;9.53;100.00
39681;BME280;26327;42.550;23.120;2024-03-02T03:27:45;92155.22;;;9.67;100.00
39681;BME280;26327;42.550;23.120;2024-03-02T03:30:11;92134.03;;;9.57;100.00
39681;BME280;26327;42.550;23.120;2024-03-02T03:32:37;92156.78;;;9.62;100.00
39681;BME280;26327;42.550;23.120;2024-03-02T03:35:03;92086.13;;;9.19;100.00
39681;BME280;26327;42.550;23.120;2024-03-02T03:37:29;92163.16;;;9.31;100.00
39681;BME280;26327;42.550;23.120;2024-03-02T03:40:01;92162.38;;;9.31;100.00
39681;BME280;26327;42.550;23.120;2024-03-02T03:42:26;92120.97;;;9.09;100.00
39681;BME280;26327;42.550;23.120;2024-03-02T03:44:52;92144.78;;;9.54;100.00
39681;BME280;26327;42.550;23.120;2024-03-02T03:47:17;92160.56;;;9.59;100.00
39681;BME280;26327;42.550;23.120;2024-03-02T03:49:43;92057.59;;;9.12;100.00
39681;BME280;26327;42.550;23.120;2024-03-02T03:52:08;92152.28;;;9.77;100.00
39681;BME280;26327;42.550;23.120;2024-03-02T03:54:33;92155.94;;;9.55;100.00
39681;BME280;26327;42.550;23.120;2024-03-02T03:56:59;92156.63;;;9.07;100.00
39681;BME280;26327;42.550;23.120;2024-03-02T03:59:24;92155.38;;;9.31;100.00
39681;BME280;26327;42.550;23.120;2024-03-02T04:01:50;92158.19;;;9.99;100.00
39681;BME280;26327;42.550;23.120;2024-03-02T04:04:15;92148.03;;;9.35;100.00
39681;BME280;26327;42.550;23.120;2024-03-02T04:06:41;92171.19;;;9.08;100.00
39681;BME280;26327;42.550;23.120;2024-03-02T04:09:06;92174.16;;;9.05;100.00
39681;BME280;26327;42.550;23.120;2024-03-02T04:11:32;92151.22;;;8.81;100.00
39681;BME280;26327;42.550;23.120;2024-03-02T04:13:57;92164.53;;;8.99;100.00
39681;BME280;26327;42.550;23.120;2024-03-02T04:16:23;92119.00;;;8.90;100.00
39681;BME280;26327;42.550;23.120;2024-03-02T04:18:48;92108.38;;;9.06;100.00
39681;BME280;26327;42.550;23.120;2024-03-02T04:21:14;92154.44;;;9.39;100.00
39681;BME280;26327;42.550;23.120;2024-03-02T04:23:39;92124.50;;;9.02;100.00
39681;BME280;26327;42.550;23.120;2024-03-02T04:26:04;92163.72;;;9.55;100.00
39681;BME280;26327;42.550;23.120;2024-03-02T04:28:30;92160.59;;;9.66;100.00
39681;BME280;26327;42.550;23.120;2024-03-02T04:30:55;92142.78;;;9.56;100.00
39681;BME280;26327;42.550;23.120;2024-03-02T04:33:21;92161.69;;;9.85;100.00
39681;BME280;26327;42.550;23.120;2024-03-02T04:35:46;92109.88;;;9.57;100.00
39681;BME280;26327;42.550;23.120;2024-03-02T04:38:12;92132.69;;;9.74;100.00
39681;BME280;26327;42.550;23.120;2024-03-02T04:40:37;92155.63;;;9.71;100.00
39681;BME280;26327;42.550;23.120;2024-03-02T04:43:03;92142.06;;;9.69;100.00
39681;BME280;26327;42.550;23.120;2024-03-02T04:45:29;92105.22;;;9.45;100.00
39681;BME280;26327;42.550;23.120;2024-03-02T04:47:54;92053.16;;;9.06;100.00
39681;BME280;26327;42.550;23.120;2024-03-02T04:50:20;92122.81;;;9.50;100.00
39681;BME280;26327;42.550;23.120;2024-03-02T04:52:45;92097.72;;;9.23;100.00
39681;BME280;26327;42.550;23.120;2024-03-02T04:55:10;92118.75;;;9.41;100.00
39681;BME280;26327;42.550;23.120;2024-03-02T04:57:50;92152.16;;;9.57;100.00
39681;BME280;26327;42.550;23.120;2024-03-02T05:00:16;92172.19;;;9.70;100.00
39681;BME280;26327;42.550;23.120;2024-03-02T05:02:42;92169.22;;;9.45;100.00
39681;BME280;26327;42.550;23.120;2024-03-02T05:05:08;92124.03;;;8.98;100.00
39681;BME280;26327;42.550;23.120;2024-03-02T05:07:33;92112.88;;;9.26;100.00
39681;BME280;26327;42.550;23.120;2024-03-02T05:09:58;92115.28;;;9.27;100.00
39681;BME280;26327;42.550;23.120;2024-03-02T05:12:24;92174.75;;;9.35;100.00
39681;BME280;26327;42.550;23.120;2024-03-02T05:15:08;92168.94;;;9.61;100.00
39681;BME280;26327;42.550;23.120;2024-03-02T05:17:35;92177.72;;;9.60;100.00
39681;BME280;26327;42.550;23.120;2024-03-02T05:20:02;92069.28;;;9.01;100.00
39681;BME280;26327;42.550;23.120;2024-03-02T05:22:27;92074.28;;;9.03;100.00
39681;BME280;26327;42.550;23.120;2024-03-02T05:24:53;92081.75;;;9.19;100.00
39681;BME280;26327;42.550;23.120;2024-03-02T05:27:18;92174.44;;;9.79;100.00
39681;BME280;26327;42.550;23.120;2024-03-02T05:29:44;92137.16;;;9.46;100.00
39681;BME280;26327;42.550;23.120;2024-03-02T05:32:09;92191.84;;;9.92;100.00
39681;BME280;26327;42.550;23.120;2024-03-02T05:34:34;92196.50;;;9.97;100.00
39681;BME280;26327;42.550;23.120;2024-03-02T05:37:01;92187.41;;;9.79;100.00
39681;BME280;26327;42.550;23.120;2024-03-02T05:39:26;92177.44;;;9.83;100.00
39681;BME280;26327;42.550;23.120;2024-03-02T05:41:52;92170.47;;;9.84;100.00
39681;BME280;26327;42.550;23.120;2024-03-02T05:44:17;92145.56;;;9.55;100.00
39681;BME280;26327;42.550;23.120;2024-03-02T05:46:44;92200.91;;;9.68;100.00
39681;BME280;26327;42.550;23.120;2024-03-02T05:49:10;92181.28;;;9.53;100.00
39681;BME280;26327;42.550;23.120;2024-03-02T05:51:35;92102.75;;;8.75;100.00
39681;BME280;26327;42.550;23.120;2024-03-02T05:54:01;92209.78;;;9.53;100.00
39681;BME280;26327;42.550;23.120;2024-03-02T05:56:26;92197.53;;;9.40;100.00
39681;BME280;26327;42.550;23.120;2024-03-02T05:58:52;92138.63;;;8.78;100.00
39681;BME280;26327;42.550;23.120;2024-03-02T06:01:52;92205.09;;;9.13;100.00
39681;BME280;26327;42.550;23.120;2024-03-02T06:04:18;92211.84;;;9.08;100.00
39681;BME280;26327;42.550;23.120;2024-03-02T06:06:43;92191.47;;;8.83;100.00
39681;BME280;26327;42.550;23.120;2024-03-02T06:09:09;92198.84;;;9.01;100.00
39681;BME280;26327;42.550;23.120;2024-03-02T06:11:38;92207.31;;;8.95;100.00
39681;BME280;26327;42.550;23.120;2024-03-02T06:14:08;92211.91;;;9.14;100.00
39681;BME280;26327;42.550;23.120;2024-03-02T06:16:34;92150.03;;;9.05;100.00
39681;BME280;26327;42.550;23.120;2024-03-02T06:19:00;92141.91;;;9.14;100.00
39681;BME280;26327;42.550;23.120;2024-03-02T06:21:29;92213.41;;;9.58;100.00
39681;BME280;26327;42.550;23.120;2024-03-02T06:23:54;92149.69;;;9.14;100.00
39681;BME280;26327;42.550;23.120;2024-03-02T06:26:20;92226.81;;;9.62;100.00
39681;BME280;26327;42.550;23.120;2024-03-02T06:28:46;92218.66;;;9.65;100.00
39681;BME280;26327;42.550;23.120;2024-03-02T06:31:11;92207.38;;;9.86;100.00
39681;BME280;26327;42.550;23.120;2024-03-02T06:33:37;92147.19;;;9.56;100.00
39681;BME280;26327;42.550;23.120;2024-03-02T06:36:03;92065.31;;;9.05;100.00
39681;BME280;26327;42.550;23.120;2024-03-02T06:38:29;92167.19;;;9.68;100.00
39681;BME280;26327;42.550;23.120;2024-03-02T06:40:57;92216.44;;;9.96;100.00
39681;BME280;26327;42.550;23.120;2024-03-02T06:43:22;92232.94;;;9.54;100.00
39681;BME280;26327;42.550;23.120;2024-03-02T06:45:49;92204.59;;;9.25;100.00
39681;BME280;26327;42.550;23.120;2024-03-02T06:48:15;92214.22;;;9.59;100.00
39681;BME280;26327;42.550;23.120;2024-03-02T06:50:45;92223.88;;;9.71;100.00
39681;BME280;26327;42.550;23.120;2024-03-02T06:53:10;92151.63;;;9.34;100.00
39681;BME280;26327;42.550;23.120;2024-03-02T06:55:36;92229.13;;;9.50;100.00
39681;BME280;26327;42.550;23.120;2024-03-02T06:58:01;92226.91;;;9.47;100.00
39681;BME280;26327;42.550;23.120;2024-03-02T07:00:26;92210.59;;;9.53;100.00
39681;BME280;26327;42.550;23.120;2024-03-02T07:02:52;92179.59;;;9.45;100.00
39681;BME280;26327;42.550;23.120;2024-03-02T07:05:17;92234.09;;;9.79;100.00
39681;BME280;26327;42.550;23.120;2024-03-02T07:07:43;92240.06;;;9.73;100.00
39681;BME280;26327;42.550;23.120;2024-03-02T07:10:08;92225.56;;;9.86;100.00
39681;BME280;26327;42.550;23.120;2024-03-02T07:12:34;92236.38;;;9.61;100.00
39681;BME280;26327;42.550;23.120;2024-03-02T07:14:59;92219.59;;;9.29;100.00
39681;BME280;26327;42.550;23.120;2024-03-02T07:17:27;92196.84;;;9.53;100.00
39681;BME280;26327;42.550;23.120;2024-03-02T07:19:53;92234.41;;;9.63;100.00
39681;BME280;26327;42.550;23.120;2024-03-02T07:22:19;92245.69;;;9.84;100.00
39681;BME280;26327;42.550;23.120;2024-03-02T07:24:44;92244.31;;;9.88;100.00
39681;BME280;26327;42.550;23.120;2024-03-02T07:27:12;92228.31;;;10.12;100.00
39681;BME280;26327;42.550;23.120;2024-03-02T07:29:38;92232.38;;;10.21;100.00
39681;BME280;26327;42.550;23.120;2024-03-02T07:32:04;92233.63;;;10.38;100.00
39681;BME280;26327;42.550;23.120;2024-03-02T07:34:30;92212.41;;;10.28;100.00
39681;BME280;26327;42.550;23.120;2024-03-02T07:36:56;92182.19;;;10.14;100.00
39681;BME280;26327;42.550;23.120;2024-03-02T07:39:22;92163.94;;;9.94;100.00
39681;BME280;26327;42.550;23.120;2024-03-02T07:41:47;92239.53;;;10.60;100.00
39681;BME280;26327;42.550;23.120;2024-03-02T07:44:13;92241.72;;;10.57;100.00
39681;BME280;26327;42.550;23.120;2024-03-02T07:46:42;92252.44;;;10.40;100.00
39681;BME280;26327;42.550;23.120;2024-03-02T07:49:09;92181.66;;;9.91;100.00
39681;BME280;26327;42.550;23.120;2024-03-02T07:51:34;92252.81;;;10.37;100.00
39681;BME280;26327;42.550;23.120;2024-03-02T07:54:00;92253.00;;;10.36;100.00
39681;BME280;26327;42.550;23.120;2024-03-02T07:56:26;92253.13;;;10.62;100.00
39681;BME280;26327;42.550;23.120;2024-03-02T07:58:51;92244.72;;;10.60;100.00
39681;BME280;26327;42.550;23.120;2024-03-02T08:01:17;92244.88;;;10.46;100.00
39681;BME280;26327;42.550;23.120;2024-03-02T08:03:43;92257.34;;;10.70;100.00
39681;BME280;26327;42.550;23.120;2024-03-02T08:06:13;92245.56;;;10.26;100.00
39681;BME280;26327;42.550;23.120;2024-03-02T08:08:40;92264.25;;;10.15;100.00
39681;BME280;26327;42.550;23.120;2024-03-02T08:11:05;92194.88;;;9.61;100.00
39681;BME280;26327;42.550;23.120;2024-03-02T08:13:31;92263.47;;;10.49;100.00
39681;BME280;26327;42.550;23.120;2024-03-02T08:15:56;92257.09;;;10.58;100.00
39681;BME280;26327;42.550;23.120;2024-03-02T08:18:22;92249.88;;;10.47;100.00
39681;BME280;26327;42.550;23.120;2024-03-02T08:20:47;92264.50;;;10.61;100.00
39681;BME280;26327;42.550;23.120;2024-03-02T08:23:13;92269.25;;;10.51;100.00
39681;BME280;26327;42.550;23.120;2024-03-02T08:25:38;92266.31;;;10.61;100.00
39681;BME280;26327;42.550;23.120;2024-03-02T08:28:03;92271.69;;;10.59;100.00
39681;BME280;26327;42.550;23.120;2024-03-02T08:30:29;92214.34;;;10.20;100.00
39681;BME280;26327;42.550;23.120;2024-03-02T08:32:55;92273.06;;;10.49;100.00
39681;BME280;26327;42.550;23.120;2024-03-02T08:35:20;92254.06;;;10.48;100.00
39681;BME280;26327;42.550;23.120;2024-03-02T08:37:47;92266.25;;;10.48;100.00
39681;BME280;26327;42.550;23.120;2024-03-02T08:40:13;92278.91;;;10.64;100.00
39681;BME280;26327;42.550;23.120;2024-03-02T08:42:39;92198.94;;;10.53;100.00
39681;BME280;26327;42.550;23.120;2024-03-02T08:45:04;92241.03;;;11.02;99.67
39681;BME280;26327;42.550;23.120;2024-03-02T08:47:31;92270.28;;;11.38;95.90
39681;BME280;26327;42.550;23.120;2024-03-02T08:49:56;92162.19;;;10.69;98.41
39681;BME280;26327;42.550;23.120;2024-03-02T08:52:22;92152.19;;;10.66;97.73
39681;BME280;26327;42.550;23.120;2024-03-02T08:54:47;92165.81;;;10.81;98.11
39681;BME280;26327;42.550;23.120;2024-03-02T08:57:12;92265.50;;;11.41;99.18
39681;BME280;26327;42.550;23.120;2024-03-02T08:59:38;92276.06;;;11.33;100.00
39681;BME280;26327;42.550;23.120;2024-03-02T09:02:05;92278.66;;;11.33;99.53
39681;BME280;26327;42.550;23.120;2024-03-02T09:04:30;92221.78;;;10.84;99.50
39681;BME280;26327;42.550;23.120;2024-03-02T09:06:56;92267.63;;;11.11;99.85
39681;BME280;26327;42.550;23.120;2024-03-02T09:09:21;92232.81;;;10.92;99.82
39681;BME280;26327;42.550;23.120;2024-03-02T09:11:47;92183.53;;;10.03;100.00
39681;BME280;26327;42.550;23.120;2024-03-02T09:14:12;92217.13;;;10.53;100.00
39681;BME280;26327;42.550;23.120;2024-03-02T09:16:40;92255.72;;;10.69;100.00
39681;BME280;26327;42.550;23.120;2024-03-02T09:19:05;92262.56;;;10.83;100.00
39681;BME280;26327;42.550;23.120;2024-03-02T09:21:31;92295.41;;;10.91;100.00
39681;BME280;26327;42.550;23.120;2024-03-02T09:23:56;92238.47;;;10.42;100.00
39681;BME280;26327;42.550;23.120;2024-03-02T09:26:22;92300.94;;;10.81;100.00
39681;BME280;26327;42.550;23.120;2024-03-02T09:28:50;92228.34;;;10.19;100.00
39681;BME280;26327;42.550;23.120;2024-03-02T09:31:15;92301.31;;;10.71;100.00
39681;BME280;26327;42.550;23.120;2024-03-02T09:33:41;92285.66;;;10.58;100.00
39681;BME280;26327;42.550;23.120;2024-03-02T09:36:16;92263.53;;;10.28;100.00
39681;BME280;26327;42.550;23.120;2024-03-02T09:38:42;92194.94;;;10.09;100.00
39681;BME280;26327;42.550;23.120;2024-03-02T09:41:07;92299.91;;;10.76;100.00
39681;BME280;26327;42.550;23.120;2024-03-02T09:43:33;92189.34;;;10.05;100.00
39681;BME280;26327;42.550;23.120;2024-03-02T09:45:58;92235.09;;;10.48;100.00
39681;BME280;26327;42.550;23.120;2024-03-02T09:48:24;92310.91;;;10.71;100.00
39681;BME280;26327;42.550;23.120;2024-03-02T09:50:50;92245.41;;;10.34;100.00
39681;BME280;26327;42.550;23.120;2024-03-02T09:53:15;92186.72;;;9.99;100.00
39681;BME280;26327;42.550;23.120;2024-03-02T09:55:46;92301.69;;;10.68;100.00
39681;BME280;26327;42.550;23.120;2024-03-02T09:58:11;92311.75;;;10.85;100.00
39681;BME280;26327;42.550;23.120;2024-03-02T10:00:37;92286.50;;;10.72;100.00
39681;BME280;26327;42.550;23.120;2024-03-02T10:03:03;92273.06;;;10.49;100.00
39681;BME280;26327;42.550;23.120;2024-03-02T10:05:30;92257.81;;;10.39;100.00
39681;BME280;26327;42.550;23.120;2024-03-02T10:08:02;92304.72;;;10.72;100.00
39681;BME280;26327;42.550;23.120;2024-03-02T10:10:35;92274.84;;;10.48;100.00
39681;BME280;26327;42.550;23.120;2024-03-02T10:13:08;92278.69;;;10.59;100.00
39681;BME280;26327;42.550;23.120;2024-03-02T10:15:35;92261.66;;;10.50;100.00
39681;BME280;26327;42.550;23.120;2024-03-02T10:18:02;92230.22;;;10.31;100.00
39681;BME280;26327;42.550;23.120;2024-03-02T10:20:28;92298.31;;;10.75;100.00
39681;BME280;26327;42.550;23.120;2024-03-02T10:22:55;92225.63;;;10.33;100.00
39681;BME280;26327;42.550;23.120;2024-03-02T10:25:33;92273.69;;;10.64;100.00
39681;BME280;26327;42.550;23.120;2024-03-02T10:27:59;92296.94;;;10.79;100.00
39681;BME280;26327;42.550;23.120;2024-03-02T10:30:25;92293.88;;;10.62;100.00
39681;BME280;26327;42.550;23.120;2024-03-02T10:32:53;92233.38;;;10.27;100.00
39681;BME280;26327;42.550;23.120;2024-03-02T10:35:19;92196.03;;;9.87;100.00
39681;BME280;26327;42.550;23.120;2024-03-02T10:37:47;92284.09;;;10.64;100.00
39681;BME280;26327;42.550;23.120;2024-03-02T10:40:13;92275.22;;;10.45;100.00
39681;BME280;26327;42.550;23.120;2024-03-02T10:42:44;92297.47;;;10.61;100.00
39681;BME280;26327;42.550;23.120;2024-03-02T10:45:12;92221.59;;;10.24;99.59
39681;BME280;26327;42.550;23.120;2024-03-02T10:47:40;92233.59;;;10.32;100.00
39681;BME280;26327;42.550;23.120;2024-03-02T10:50:07;92268.69;;;10.62;100.00
39681;BME280;26327;42.550;23.120;2024-03-02T10:52:37;92278.81;;;10.44;100.00
39681;BME280;26327;42.550;23.120;2024-03-02T10:55:04;92277.22;;;10.43;100.00
39681;BME280;26327;42.550;23.120;2024-03-02T10:57:51;92288.41;;;10.44;100.00
39681;BME280;26327;42.550;23.120;2024-03-02T11:00:18;92264.56;;;10.33;100.00
39681;BME280;26327;42.550;23.120;2024-03-02T11:02:55;92265.97;;;10.36;100.00
39681;BME280;26327;42.550;23.120;2024-03-02T11:05:28;92283.88;;;10.59;100.00
39681;BME280;26327;42.550;23.120;2024-03-02T11:08:00;92265.66;;;10.46;100.00
39681;BME280;26327;42.550;23.120;2024-03-02T11:10:34;92221.31;;;10.13;100.00
39681;BME280;26327;42.550;23.120;2024-03-02T11:13:02;92231.41;;;10.29;100.00
39681;BME280;26327;42.550;23.120;2024-03-02T11:15:30;92242.28;;;10.46;100.00
39681;BME280;26327;42.550;23.120;2024-03-02T11:17:55;92274.50;;;10.64;100.00
39681;BME280;26327;42.550;23.120;2024-03-02T11:20:22;92264.50;;;10.61;100.00
39681;BME280;26327;42.550;23.120;2024-03-02T11:22:48;92276.09;;;10.59;100.00
39681;BME280;26327;42.550;23.120;2024-03-02T11:25:24;92263.16;;;10.31;100.00
39681;BME280;26327;42.550;23.120;2024-03-02T11:33:03;92268.66;;;11.30;98.37
39681;BME280;26327;42.550;23.120;2024-03-02T11:35:36;92268.09;;;11.41;98.47
39681;BME280;26327;42.550;23.120;2024-03-02T11:38:03;92261.88;;;11.42;97.93
39681;BME280;26327;42.550;23.120;2024-03-02T11:40:29;92276.44;;;11.23;95.63
39681;BME280;26327;42.550;23.120;2024-03-02T11:42:55;92267.25;;;11.34;96.79
39681;BME280;26327;42.550;23.120;2024-03-02T11:45:25;92210.97;;;10.67;97.08
39681;BME280;26327;42.550;23.120;2024-03-02T11:47:54;92232.97;;;10.84;96.80
39681;BME280;26327;42.550;23.120;2024-03-02T11:52:58;92208.22;;;10.88;97.14
39681;BME280;26327;42.550;23.120;2024-03-02T11:55:25;92264.09;;;11.45;97.29
39681;BME280;26327;42.550;23.120;2024-03-02T11:57:52;92228.66;;;11.11;95.14
39681;BME280;26327;42.550;23.120;2024-03-02T12:00:18;92198.25;;;11.05;93.93
39681;BME280;26327;42.550;23.120;2024-03-02T12:02:45;92245.09;;;11.45;94.83
39681;BME280;26327;42.550;23.120;2024-03-02T12:05:15;92269.50;;;11.50;93.94
39681;BME280;26327;42.550;23.120;2024-03-02T12:07:42;92217.66;;;11.62;91.90
39681;BME280;26327;42.550;23.120;2024-03-02T12:10:08;92249.09;;;11.87;93.25
39681;BME280;26327;42.550;23.120;2024-03-02T12:12:33;92198.25;;;11.58;91.77
39681;BME280;26327;42.550;23.120;2024-03-02T12:14:59;92249.84;;;12.14;93.01
39681;BME280;26327;42.550;23.120;2024-03-02T12:17:26;92246.84;;;11.77;92.79
39681;BME280;26327;42.550;23.120;2024-03-02T12:19:51;92190.41;;;11.71;91.40
39681;BME280;26327;42.550;23.120;2024-03-02T12:22:17;92268.63;;;12.36;90.73
39681;BME280;26327;42.550;23.120;2024-03-02T12:24:43;92260.06;;;12.15;91.38
39681;BME280;26327;42.550;23.120;2024-03-02T12:27:11;92206.44;;;11.81;91.13
39681;BME280;26327;42.550;23.120;2024-03-02T12:29:38;92257.25;;;12.10;91.84
39681;BME280;26327;42.550;23.120;2024-03-02T12:32:05;92257.69;;;11.81;93.03
39681;BME280;26327;42.550;23.120;2024-03-02T12:34:31;92266.13;;;11.83;93.78
39681;BME280;26327;42.550;23.120;2024-03-02T12:36:57;92249.31;;;11.85;93.23
39681;BME280;26327;42.550;23.120;2024-03-02T12:39:22;92150.84;;;11.16;92.94
39681;BME280;26327;42.550;23.120;2024-03-02T12:41:49;92225.06;;;11.85;91.35
39681;BME280;26327;42.550;23.120;2024-03-02T12:44:16;92263.81;;;12.26;91.42
39681;BME280;26327;42.550;23.120;2024-03-02T12:46:42;92257.88;;;11.99;93.07
39681;BME280;26327;42.550;23.120;2024-03-02T12:49:09;92249.88;;;11.94;92.60
39681;BME280;26327;42.550;23.120;2024-03-02T12:51:36;92258.66;;;12.13;90.26
39681;BME280;26327;42.550;23.120;2024-03-02T12:54:02;92251.88;;;11.65;92.39